Etusivu
METAR-TAF:

METAR-TAF

Lentoasemat :

Aarhus, Tanska

Leveyspiiri: 56-18N, Pituuspiiri: 010-37E, korkeus merenpinnasta: 23 m

Tämänhetkinen sää

Tämä raportti tehtiin 32 minuuttia sitten, kello 10.20 UTC
Tuuli 2 kn pohjoisen/luoteesta
Lämpötila 17°C
Kosteus 29%
Ilmanpaine 1034 hPa
Näkyvyys 10 km tai enemmän

METAR: EKAH 201020Z AUTO 34002KT 9999NDV NCD 17/M01 Q1034

Aika: 12:52 (10:52 UTC)

Sääennuste

Tämä raportti tehtiin 5 tuntia ja 44 minuuttia sitten, kello 05.08 UTC
Ennuste voimassa 20. päivästä klo 06 UTC - 21. päivään klo 06 UTC
Tuuli 2 kn eri suunnista
Näkyvyys 10 km tai enemmän
ei pilviä alle 1500 m:ssä eikä cumulonimbus-pilviä

TAF: EKAH 200508Z 2006/2106 VRB02KT CAVOK

Säähavainnot ja -ennusteet yli 4000 lentoasemalta (METAR- ja TAF-raportit).

Käytössä olevat sääasemat on merkitty karttaan keltaisilla ja punaisilla pisteillä.

Aseta hiiri pisteen päälle nähdäksesi sääaseman nimen.

Klikkaa sitten nähdäksesi säähavainnot ja -ennusteet.

Kartan vaihtaminen: klikkaa mustalla rastilla varustettuja vihreitä pisteitä, niin voit zoomata sisään; viivalla varustettua vihreää pistettä, niin voit zoomata ulos tai vihreitä nuolia, niin pääset viereisille kartoille.


METAR-TAF: